Time;durP1;ratioP1;P1;durP2;ratioP2;P2;SDS_P1;SDS_P2;PMS_P1;PMS_P2;Temp;Humidity;BMP_temperature;BMP_pressure;BME280_temperature;BME280_humidity;BME280_pressure;Samples;Min_cycle;Max_cycle;Signal;HPM_P1;HPM_P2
2022/08/29 00:00:17;;;;;;;6.03;1.95;;;15.60;99.90;;;;;;4878075;29;20021;-76
2022/08/29 00:02:44;;;;;;;6.15;1.83;;;15.60;99.90;;;;;;4866542;29;20025;-78
2022/08/29 00:05:10;;;;;;;4.72;1.88;;;15.70;99.90;;;;;;4865735;29;20616;-76
2022/08/29 00:07:35;;;;;;;4.97;2.10;;;15.60;99.90;;;;;;4866610;29;20037;-77
2022/08/29 00:10:03;;;;;;;6.68;1.95;;;15.70;99.90;;;;;;4874567;29;20029;-77
2022/08/29 00:12:29;;;;;;;5.30;1.55;;;15.60;99.90;;;;;;4884885;29;20025;-77
2022/08/29 00:14:55;;;;;;;2.88;1.42;;;15.60;99.90;;;;;;4886088;29;20044;-77
2022/08/29 00:17:21;;;;;;;5.25;1.77;;;15.60;99.90;;;;;;4871439;29;20155;-77
2022/08/29 00:19:47;;;;;;;3.83;1.80;;;15.60;99.90;;;;;;4859860;29;20026;-77
2022/08/29 00:22:13;;;;;;;7.30;1.70;;;15.60;99.90;;;;;;4852010;29;20038;-77
2022/08/29 00:24:38;;;;;;;3.55;1.70;;;15.60;99.90;;;;;;4878057;29;20046;-77
2022/08/29 00:27:04;;;;;;;4.95;1.90;;;15.60;99.90;;;;;;4867870;29;20427;-76
2022/08/29 00:29:30;;;;;;;5.35;2.10;;;15.60;99.90;;;;;;4869260;29;20116;-76
2022/08/29 00:31:55;;;;;;;4.68;1.40;;;15.60;99.90;;;;;;4898897;23;20092;-78
2022/08/29 00:34:21;;;;;;;4.25;1.83;;;15.60;99.90;;;;;;4905761;29;20045;-78
2022/08/29 00:36:46;;;;;;;3.88;1.63;;;15.60;99.90;;;;;;4899228;29;20050;-78
2022/08/29 00:39:12;;;;;;;6.65;1.95;;;15.50;99.90;;;;;;4897551;29;20084;-78
2022/08/29 00:41:37;;;;;;;3.83;2.00;;;15.50;99.90;;;;;;4915650;29;20501;-78
2022/08/29 00:44:04;;;;;;;6.25;2.00;;;15.60;99.90;;;;;;4917084;29;20036;-78
2022/08/29 00:46:42;;;;;;;6.07;1.63;;;15.50;99.90;;;;;;4907510;29;20040;-78
2022/08/29 00:49:09;;;;;;;6.40;2.30;;;15.50;99.90;;;;;;4911152;29;20021;-77
2022/08/29 00:51:36;;;;;;;3.95;1.80;;;15.50;99.90;;;;;;4901556;29;20053;-78
2022/08/29 00:54:07;;;;;;;3.33;1.65;;;15.50;99.90;;;;;;4919144;29;20017;-78
2022/08/29 00:56:34;;;;;;;4.40;1.73;;;15.50;99.90;;;;;;4907064;29;20096;-78
2022/08/29 00:59:16;;;;;;;4.75;1.77;;;15.50;99.90;;;;;;4900601;29;20072;-78
2022/08/29 01:01:42;;;;;;;5.00;2.13;;;15.40;99.90;;;;;;4916431;29;20713;-77
2022/08/29 01:04:09;;;;;;;3.17;1.73;;;15.50;99.90;;;;;;4918604;29;20028;-77
2022/08/29 01:06:36;;;;;;;6.88;2.15;;;15.50;99.90;;;;;;4911102;29;20037;-75
2022/08/29 01:09:04;;;;;;;5.70;1.85;;;15.50;99.90;;;;;;4907175;29;20072;-75
2022/08/29 01:14:16;;;;;;;3.78;1.80;;;15.50;99.90;;;;;;4906577;29;20092;-75
2022/08/29 01:16:43;;;;;;;5.00;2.05;;;15.50;99.90;;;;;;4907247;29;20044;-75
2022/08/29 01:19:50;;;;;;;4.57;1.90;;;15.40;99.90;;;;;;4917535;29;20052;-75
2022/08/29 01:22:47;;;;;;;3.95;2.00;;;15.50;99.90;;;;;;4912588;29;20017;-75
2022/08/29 01:25:16;;;;;;;4.53;1.77;;;15.50;99.90;;;;;;4902337;29;20040;-75
2022/08/29 01:27:45;;;;;;;4.25;2.17;;;15.40;99.90;;;;;;4909207;29;20057;-76
2022/08/29 01:30:13;;;;;;;5.60;1.92;;;15.40;99.90;;;;;;4899900;29;20033;-76
2022/08/29 01:32:39;;;;;;;5.22;1.90;;;15.40;99.90;;;;;;4911922;29;20476;-76
2022/08/29 01:35:07;;;;;;;5.93;2.38;;;15.40;99.90;;;;;;4901195;29;20080;-76
2022/08/29 01:37:34;;;;;;;5.03;1.85;;;15.40;99.90;;;;;;4914493;29;20036;-75
2022/08/29 01:40:00;;;;;;;5.47;1.67;;;15.40;99.90;;;;;;4912488;29;20029;-75
2022/08/29 01:42:25;;;;;;;4.38;1.85;;;15.40;99.90;;;;;;4896220;29;20040;-75
2022/08/29 01:44:54;;;;;;;7.43;2.05;;;15.40;99.90;;;;;;4909705;29;20036;-76
2022/08/29 01:47:22;;;;;;;5.15;2.30;;;15.40;99.90;;;;;;4907697;29;20063;-75
2022/08/29 01:49:48;;;;;;;5.07;2.10;;;15.30;99.90;;;;;;4901495;29;20029;-75
2022/08/29 01:52:14;;;;;;;6.85;2.10;;;15.40;99.90;;;;;;4909127;29;20093;-75
2022/08/29 01:54:41;;;;;;;6.40;2.30;;;15.40;99.90;;;;;;4902166;29;20059;-76
2022/08/29 01:57:08;;;;;;;4.78;2.03;;;15.40;99.90;;;;;;4917428;29;20025;-75
2022/08/29 01:59:34;;;;;;;4.43;2.15;;;15.40;99.90;;;;;;4901628;29;20021;-75
2022/08/29 02:02:02;;;;;;;5.88;2.25;;;15.40;99.90;;;;;;4901012;29;20045;-77
2022/08/29 02:04:28;;;;;;;4.85;1.70;;;15.40;99.90;;;;;;4900439;29;20097;-78
2022/08/29 02:07:01;;;;;;;5.45;2.50;;;15.40;99.90;;;;;;4914934;29;20016;-78
2022/08/29 02:09:27;;;;;;;4.63;2.10;;;15.30;99.90;;;;;;4910213;29;20033;-77
2022/08/29 02:11:53;;;;;;;4.38;2.03;;;15.40;99.90;;;;;;4904070;29;20039;-78
2022/08/29 02:14:19;;;;;;;6.40;2.47;;;15.40;99.90;;;;;;4905848;29;20017;-78
2022/08/29 02:16:46;;;;;;;4.80;2.70;;;15.40;99.90;;;;;;4912331;29;20100;-78
2022/08/29 02:19:11;;;;;;;6.03;2.17;;;15.40;99.90;;;;;;4906438;29;20041;-78
2022/08/29 02:21:39;;;;;;;7.38;2.28;;;15.40;99.90;;;;;;4906245;29;20021;-78
2022/08/29 02:24:05;;;;;;;6.40;2.40;;;15.40;99.90;;;;;;4908182;29;20088;-78
2022/08/29 02:26:31;;;;;;;5.13;2.30;;;15.50;99.90;;;;;;4900670;29;20055;-78
2022/08/29 02:28:56;;;;;;;4.57;2.20;;;15.50;99.90;;;;;;4904945;29;20017;-78
2022/08/29 02:31:23;;;;;;;4.13;2.10;;;15.50;99.90;;;;;;4912191;29;20416;-78
2022/08/29 02:33:51;;;;;;;6.78;2.72;;;15.50;99.90;;;;;;4912817;29;20052;-75
2022/08/29 02:36:17;;;;;;;5.40;2.30;;;15.50;99.90;;;;;;4901887;29;20036;-75
2022/08/29 02:38:43;;;;;;;6.05;2.50;;;15.50;99.90;;;;;;4907032;29;20100;-75
2022/08/29 02:41:09;;;;;;;10.80;2.50;;;15.40;99.90;;;;;;4902667;29;20066;-75
2022/08/29 02:43:35;;;;;;;7.60;2.20;;;15.40;99.90;;;;;;4913410;29;20021;-76
2022/08/29 02:46:01;;;;;;;6.53;2.28;;;15.40;99.90;;;;;;4895629;29;20036;-76
2022/08/29 02:48:27;;;;;;;5.03;2.25;;;15.40;99.90;;;;;;4908489;29;20076;-75
2022/08/29 02:50:54;;;;;;;8.20;2.72;;;15.40;99.90;;;;;;4921385;29;20039;-75
2022/08/29 02:53:24;;;;;;;7.05;3.05;;;15.50;99.90;;;;;;4921074;29;20040;-75
2022/08/29 02:55:50;;;;;;;5.93;2.73;;;15.50;99.90;;;;;;4920468;29;20041;-75
2022/08/29 02:58:17;;;;;;;8.23;2.80;;;15.50;99.90;;;;;;4890894;29;20280;-76
2022/08/29 03:00:43;;;;;;;5.72;2.55;;;15.50;99.90;;;;;;4920651;29;20623;-75
2022/08/29 03:03:09;;;;;;;7.10;2.40;;;15.50;99.90;;;;;;4909581;29;20021;-75
2022/08/29 03:05:36;;;;;;;6.13;2.40;;;15.50;99.90;;;;;;4896802;29;20024;-75
2022/08/29 03:08:05;;;;;;;5.70;2.28;;;15.50;99.90;;;;;;4921081;29;20050;-76
2022/08/29 03:10:31;;;;;;;5.50;2.25;;;15.60;99.90;;;;;;4921149;29;20029;-76
2022/08/29 03:12:57;;;;;;;5.20;2.78;;;15.60;99.90;;;;;;4908649;29;20025;-75
2022/08/29 03:15:24;;;;;;;8.73;2.80;;;15.70;99.90;;;;;;4915228;29;20319;-75
2022/08/29 03:17:49;;;;;;;5.82;2.85;;;15.70;99.90;;;;;;4914515;29;20028;-75
2022/08/29 03:20:18;;;;;;;7.88;2.53;;;15.60;99.90;;;;;;4909202;29;20360;-75
2022/08/29 03:22:44;;;;;;;4.55;2.22;;;15.60;99.90;;;;;;4906033;29;20025;-75
2022/08/29 03:25:11;;;;;;;6.30;2.53;;;15.60;99.90;;;;;;4909644;29;20041;-75
2022/08/29 03:27:37;;;;;;;5.70;2.40;;;15.60;99.90;;;;;;4907579;29;20037;-76
2022/08/29 03:30:07;;;;;;;4.15;2.03;;;15.60;99.90;;;;;;4910073;29;20029;-76
2022/08/29 03:32:33;;;;;;;5.43;2.60;;;15.60;99.90;;;;;;4896810;29;20067;-75
2022/08/29 03:34:59;;;;;;;7.75;2.70;;;15.60;99.90;;;;;;4915394;29;20021;-76
2022/08/29 03:37:26;;;;;;;6.38;2.08;;;15.60;99.90;;;;;;4915492;29;20025;-75
2022/08/29 03:39:52;;;;;;;6.80;2.50;;;15.60;99.90;;;;;;4906901;29;20036;-75
2022/08/29 03:42:24;;;;;;;5.35;2.30;;;15.60;99.90;;;;;;4901763;29;20037;-75
2022/08/29 03:44:49;;;;;;;8.07;2.28;;;15.60;99.90;;;;;;4881066;29;20040;-76
2022/08/29 03:47:15;;;;;;;4.25;2.35;;;15.60;99.90;;;;;;4909205;29;20032;-75
2022/08/29 03:49:41;;;;;;;5.95;2.45;;;15.60;99.90;;;;;;4901432;29;20073;-75
2022/08/29 03:52:08;;;;;;;8.77;2.58;;;15.60;99.90;;;;;;4901951;29;20104;-76
2022/08/29 03:54:34;;;;;;;9.82;2.42;;;15.60;99.90;;;;;;4901060;29;20021;-76
2022/08/29 03:56:59;;;;;;;7.07;2.88;;;15.70;99.90;;;;;;4903443;29;20037;-75
2022/08/29 03:59:25;;;;;;;5.55;3.03;;;15.60;99.90;;;;;;4919658;29;20025;-75
2022/08/29 04:01:51;;;;;;;7.85;2.65;;;15.60;99.90;;;;;;4908097;29;20036;-75
2022/08/29 04:07:07;;;;;;;9.77;2.50;;;15.70;99.90;;;;;;4886492;29;20065;-75
2022/08/29 04:09:33;;;;;;;4.95;2.50;;;15.70;99.90;;;;;;4898298;29;20043;-75
2022/08/29 04:11:59;;;;;;;7.43;2.85;;;15.70;99.90;;;;;;4902692;29;20025;-75
2022/08/29 04:14:25;;;;;;;5.38;2.03;;;15.80;99.90;;;;;;4903368;29;20035;-75
2022/08/29 04:16:51;;;;;;;5.10;2.38;;;15.80;99.90;;;;;;4914705;29;20033;-75
2022/08/29 04:19:18;;;;;;;7.40;2.30;;;15.80;99.90;;;;;;4914184;29;20025;-74
2022/08/29 04:21:44;;;;;;;5.72;2.35;;;15.80;99.90;;;;;;4902775;29;20049;-75
2022/08/29 04:24:11;;;;;;;4.78;2.30;;;15.80;99.90;;;;;;4916026;29;20037;-74
2022/08/29 04:26:39;;;;;;;6.80;2.10;;;15.90;99.90;;;;;;4894997;29;20051;-75
2022/08/29 04:29:08;;;;;;;6.20;2.20;;;15.90;99.90;;;;;;4910492;29;20413;-76
2022/08/29 04:31:35;;;;;;;5.18;2.20;;;15.80;99.90;;;;;;4899001;29;20037;-76
2022/08/29 04:34:01;;;;;;;4.43;2.03;;;15.90;99.90;;;;;;4905536;29;20057;-76
2022/08/29 04:36:28;;;;;;;4.57;2.03;;;15.90;99.90;;;;;;4897364;29;20047;-75
2022/08/29 04:38:53;;;;;;;4.38;1.88;;;15.90;99.90;;;;;;4898176;29;20050;-76
2022/08/29 04:41:20;;;;;;;5.97;2.40;;;15.90;99.90;;;;;;4903174;29;20017;-76
2022/08/29 04:43:46;;;;;;;4.07;1.77;;;15.90;99.90;;;;;;4899789;29;20025;-76
2022/08/29 04:46:13;;;;;;;5.57;2.08;;;15.90;99.90;;;;;;4894268;29;20028;-75
2022/08/29 04:48:40;;;;;;;7.38;2.13;;;15.90;99.90;;;;;;4891096;29;20129;-76
2022/08/29 04:51:12;;;;;;;6.55;2.30;;;15.90;99.90;;;;;;4895527;29;20037;-76
2022/08/29 04:53:38;;;;;;;8.40;2.00;;;15.90;99.90;;;;;;4887489;29;20040;-76
2022/08/29 04:56:08;;;;;;;5.60;2.05;;;15.90;99.90;;;;;;4893094;29;20041;-75
2022/08/29 04:58:35;;;;;;;;;;;15.90;99.90;;;;;;4891187;29;20076;-76
2022/08/29 05:01:02;;;;;;;3.95;1.90;;;15.90;99.90;;;;;;4893574;29;19908;-75
2022/08/29 05:03:29;;;;;;;4.72;1.80;;;15.90;99.90;;;;;;4903676;29;20009;-75
2022/08/29 05:06:00;;;;;;;4.57;1.88;;;16.00;99.90;;;;;;4911582;29;20080;-76
2022/08/29 05:08:27;;;;;;;4.18;1.38;;;16.00;99.90;;;;;;4906359;29;20053;-75
2022/08/29 05:10:53;;;;;;;4.65;1.30;;;16.00;99.90;;;;;;4910816;29;20047;-76
2022/08/29 05:13:19;;;;;;;2.85;1.45;;;16.10;99.90;;;;;;4898980;29;20093;-75
2022/08/29 05:15:45;;;;;;;3.60;1.50;;;16.10;99.90;;;;;;4911566;29;20032;-75
2022/08/29 05:18:17;;;;;;;3.90;1.55;;;16.20;99.90;;;;;;4913989;29;20021;-75
2022/08/29 05:20:46;;;;;;;2.70;1.65;;;16.30;99.90;;;;;;4915684;29;20096;-76
2022/08/29 05:23:13;;;;;;;4.18;1.35;;;16.30;99.90;;;;;;4913989;29;20017;-75
2022/08/29 05:25:40;;;;;;;3.75;1.80;;;16.30;99.90;;;;;;4912285;29;20291;-75
2022/08/29 05:28:09;;;;;;;3.90;1.40;;;16.50;99.90;;;;;;4914577;29;20044;-75
2022/08/29 05:30:37;;;;;;;6.95;2.22;;;16.40;99.90;;;;;;4889737;29;20032;-78
2022/08/29 05:33:03;;;;;;;2.00;1.48;;;16.50;99.90;;;;;;4902346;29;20127;-77
2022/08/29 05:35:31;;;;;;;3.33;1.67;;;16.50;99.90;;;;;;4903867;29;20057;-78
2022/08/29 05:37:57;;;;;;;3.70;1.55;;;16.50;99.90;;;;;;4912244;29;20120;-75
2022/08/29 05:40:22;;;;;;;5.90;1.98;;;16.50;99.90;;;;;;4911637;29;20036;-75
2022/08/29 05:42:48;;;;;;;4.30;1.80;;;16.50;99.90;;;;;;4908766;29;20080;-75
2022/08/29 05:45:14;;;;;;;4.15;1.80;;;16.60;99.90;;;;;;4912310;29;20040;-75
2022/08/29 05:47:39;;;;;;;5.05;1.83;;;16.70;99.90;;;;;;4912292;29;20056;-76
2022/08/29 05:50:06;;;;;;;4.75;1.98;;;16.70;99.90;;;;;;4913333;29;20033;-75
2022/08/29 05:52:32;;;;;;;6.28;1.67;;;16.70;99.90;;;;;;4912820;29;20016;-75
2022/08/29 05:54:59;;;;;;;6.20;1.58;;;16.80;99.90;;;;;;4918815;29;20032;-76
2022/08/29 05:57:26;;;;;;;6.47;1.80;;;16.80;99.90;;;;;;4907507;29;20036;-75
2022/08/29 05:59:52;;;;;;;5.18;1.58;;;16.80;99.90;;;;;;4912150;29;20028;-75
2022/08/29 06:02:19;;;;;;;2.95;1.42;;;16.80;99.90;;;;;;4918661;29;20172;-75
2022/08/29 06:04:45;;;;;;;4.22;1.90;;;16.80;99.90;;;;;;4919846;29;20069;-75
2022/08/29 06:07:11;;;;;;;4.28;1.45;;;16.90;99.90;;;;;;4915717;29;20055;-76
2022/08/29 06:09:38;;;;;;;5.22;1.48;;;17.00;99.90;;;;;;4918417;29;20028;-75
2022/08/29 06:12:04;;;;;;;4.75;1.80;;;17.10;99.90;;;;;;4898871;29;20033;-75
2022/08/29 06:14:31;;;;;;;6.35;2.08;;;17.20;99.90;;;;;;4901200;29;20081;-75
2022/08/29 06:16:56;;;;;;;5.45;1.80;;;17.10;99.90;;;;;;4901116;29;20020;-75
2022/08/29 06:19:22;;;;;;;4.28;1.70;;;17.10;99.90;;;;;;4906586;29;20073;-75
2022/08/29 06:21:48;;;;;;;5.40;1.75;;;17.20;99.90;;;;;;4908586;29;20092;-75
2022/08/29 06:24:14;;;;;;;2.90;1.55;;;17.40;99.90;;;;;;4906854;29;20074;-75
2022/08/29 06:26:41;;;;;;;5.82;1.67;;;17.60;99.90;;;;;;4900554;29;20122;-75
2022/08/29 06:29:09;;;;;;;2.25;1.60;;;18.00;99.90;;;;;;4916019;29;20053;-76
2022/08/29 06:31:34;;;;;;;5.00;1.40;;;18.40;99.90;;;;;;4893652;29;20040;-76
2022/08/29 06:34:09;;;;;;;5.88;1.38;;;18.70;99.90;;;;;;4887177;29;20108;-75
2022/08/29 06:36:35;;;;;;;8.35;1.52;;;19.10;99.90;;;;;;4900975;29;20057;-75
2022/08/29 06:39:03;;;;;;;5.45;1.90;;;19.40;99.90;;;;;;4909763;29;20012;-76
2022/08/29 06:41:28;;;;;;;2.67;1.40;;;19.70;99.90;;;;;;4910451;29;20044;-75
2022/08/29 06:43:55;;;;;;;5.75;1.48;;;20.10;99.90;;;;;;4901358;29;20017;-75
2022/08/29 06:51:36;;;;;;;2.90;0.98;;;22.90;99.90;;;;;;4864665;29;20058;-78
2022/08/29 06:54:04;;;;;;;5.53;1.17;;;23.00;99.90;;;;;;4866522;29;20034;-78
2022/08/29 06:56:30;;;;;;;1.98;1.23;;;23.40;99.90;;;;;;4869268;29;20069;-77
2022/08/29 06:58:56;;;;;;;6.95;1.45;;;25.20;99.90;;;;;;4864859;29;20022;-78
2022/08/29 07:01:22;;;;;;;3.15;0.90;;;26.20;99.90;;;;;;4864525;29;20071;-78
2022/08/29 07:03:48;;;;;;;5.40;1.20;;;27.00;99.90;;;;;;4867735;29;20081;-75
2022/08/29 07:06:16;;;;;;;4.78;1.55;;;25.00;99.90;;;;;;4866329;29;20100;-76
2022/08/29 07:08:42;;;;;;;3.33;1.02;;;24.60;99.90;;;;;;4865417;29;20293;-75
2022/08/29 07:11:08;;;;;;;4.15;1.00;;;25.80;99.90;;;;;;4864688;29;20030;-76
2022/08/29 07:13:34;;;;;;;5.53;1.10;;;24.50;99.90;;;;;;4866836;29;20057;-75
2022/08/29 07:16:00;;;;;;;4.32;0.93;;;26.20;99.90;;;;;;4860345;29;20033;-75
2022/08/29 07:18:26;;;;;;;4.05;1.02;;;26.30;99.90;;;;;;4867328;29;20030;-75
2022/08/29 07:20:53;;;;;;;4.47;0.90;;;25.60;99.90;;;;;;4869941;29;20034;-76
2022/08/29 07:23:19;;;;;;;2.85;0.85;;;24.20;99.90;;;;;;4872816;29;20103;-76
2022/08/29 07:25:45;;;;;;;2.15;0.93;;;24.00;99.90;;;;;;4862992;29;20257;-76
2022/08/29 07:28:10;;;;;;;3.75;1.30;;;26.10;99.90;;;;;;4860232;29;20029;-76
2022/08/29 07:30:36;;;;;;;2.08;0.82;;;30.30;99.90;;;;;;4872057;29;20021;-76
2022/08/29 07:33:04;;;;;;;3.53;0.95;;;26.00;99.90;;;;;;4854290;29;20022;-76
2022/08/29 07:35:30;;;;;;;4.47;1.60;;;24.00;99.90;;;;;;4862741;29;20014;-76
2022/08/29 07:37:59;;;;;;;5.07;1.40;;;23.10;99.90;;;;;;4852185;29;20046;-76
2022/08/29 07:40:25;;;;;;;5.47;1.13;;;23.00;99.90;;;;;;4840804;29;20078;-77
2022/08/29 07:42:51;;;;;;;4.85;1.55;;;23.50;99.90;;;;;;4835392;29;20072;-77
2022/08/29 07:45:17;;;;;;;5.25;1.30;;;23.80;99.90;;;;;;4851804;29;20062;-76
2022/08/29 07:47:43;;;;;;;2.80;0.93;;;24.60;99.90;;;;;;4847046;29;20065;-76
2022/08/29 07:50:11;;;;;;;3.55;1.20;;;24.40;99.90;;;;;;4853651;29;20074;-79
2022/08/29 07:52:36;;;;;;;3.78;1.30;;;24.00;99.90;;;;;;4863743;29;20029;-75
2022/08/29 07:55:04;;;;;;;3.67;0.82;;;23.20;99.90;;;;;;4862434;29;20068;-75
2022/08/29 07:57:29;;;;;;;3.90;1.10;;;23.00;99.90;;;;;;4854333;29;20030;-75
2022/08/29 07:59:55;;;;;;;3.58;1.00;;;22.90;99.90;;;;;;4855967;29;20018;-75
2022/08/29 08:02:21;;;;;;;5.93;1.90;;;23.00;99.90;;;;;;4857392;29;20037;-75
2022/08/29 08:04:46;;;;;;;2.25;1.15;;;23.90;99.90;;;;;;4847307;29;20059;-75
2022/08/29 08:07:12;;;;;;;3.80;1.13;;;24.70;99.90;;;;;;4839798;29;20117;-76
2022/08/29 08:09:38;;;;;;;2.25;0.90;;;25.60;99.90;;;;;;4832512;29;20035;-76
2022/08/29 08:12:05;;;;;;;3.00;0.98;;;24.90;99.90;;;;;;4859642;29;20050;-77
2022/08/29 08:14:32;;;;;;;3.22;0.98;;;25.30;99.90;;;;;;4857957;29;20026;-77
2022/08/29 08:16:58;;;;;;;2.33;1.00;;;25.40;99.90;;;;;;4852797;29;20030;-76
2022/08/29 08:19:24;;;;;;;5.03;1.20;;;25.60;99.90;;;;;;4845422;29;20117;-75
2022/08/29 08:21:50;;;;;;;1.67;1.05;;;25.10;99.90;;;;;;4844593;29;20030;-74
2022/08/29 08:24:17;;;;;;;2.75;1.15;;;25.20;99.90;;;;;;4833687;29;20055;-75
2022/08/29 08:26:43;;;;;;;3.65;1.00;;;25.80;99.90;;;;;;4835298;29;20117;-74
2022/08/29 08:29:11;;;;;;;2.60;1.20;;;26.20;99.90;;;;;;4831224;29;20125;-75
2022/08/29 08:31:41;;;;;;;3.45;1.40;;;28.00;99.90;;;;;;4837071;29;20022;-75
2022/08/29 08:34:07;;;;;;;3.85;1.38;;;26.60;99.90;;;;;;4836753;29;20116;-75
2022/08/29 08:36:37;;;;;;;2.13;1.17;;;28.00;99.90;;;;;;4842653;29;20117;-75
2022/08/29 08:39:04;;;;;;;4.72;1.30;;;26.90;99.90;;;;;;4829480;29;20023;-78
2022/08/29 08:41:39;;;;;;;4.38;1.02;;;27.20;99.90;;;;;;4831187;29;20030;-76
2022/08/29 08:44:44;;;;;;;2.85;1.00;;;27.00;99.90;;;;;;4831967;29;20117;-76
2022/08/29 08:47:13;;;;;;;2.08;1.10;;;26.40;99.90;;;;;;4823415;29;20125;-76
2022/08/29 08:49:46;;;;;;;7.82;1.75;;;27.10;99.90;;;;;;4824462;29;20030;-76
2022/08/29 08:52:21;;;;;;;3.88;1.00;;;27.00;99.90;;;;;;4823632;29;20449;-76
2022/08/29 08:54:56;;;;;;;4.35;1.25;;;28.50;99.90;;;;;;4824316;29;20355;-76
2022/08/29 08:57:28;;;;;;;3.08;1.30;;;28.60;99.90;;;;;;4824385;29;20031;-76
2022/08/29 08:59:57;;;;;;;4.10;0.80;;;27.60;99.90;;;;;;4824313;29;20370;-75
2022/08/29 09:02:53;;;;;;;5.53;1.30;;;27.20;99.90;;;;;;4824181;29;20518;-76
2022/08/29 09:05:22;;;;;;;4.53;1.10;;;27.80;99.90;;;;;;4838888;29;20030;-76
2022/08/29 09:07:55;;;;;;;4.05;1.10;;;30.30;99.90;;;;;;4842477;29;20033;-76
2022/08/29 09:10:47;;;;;;;2.92;1.08;;;31.20;99.90;;;;;;4825989;29;20590;-76
2022/08/29 09:13:26;;;;;;;2.97;1.00;;;28.80;99.90;;;;;;4823816;29;20037;-77
2022/08/29 09:15:54;;;;;;;3.15;1.20;;;26.80;99.90;;;;;;4815388;29;20168;-76
2022/08/29 09:18:40;;;;;;;3.58;1.30;;;29.90;99.90;;;;;;4805568;29;20113;-76
2022/08/29 09:21:18;;;;;;;3.10;0.98;;;29.20;99.90;;;;;;4806320;29;20586;-77
2022/08/29 09:23:52;;;;;;;2.85;1.08;;;29.50;99.90;;;;;;4805588;29;20034;-76
2022/08/29 09:26:20;;;;;;;3.40;1.15;;;33.30;99.90;;;;;;4805976;29;20031;-77
2022/08/29 09:28:46;;;;;;;4.05;1.38;;;35.40;99.90;;;;;;4805574;29;20079;-77
2022/08/29 09:31:28;;;;;;;5.25;1.25;;;33.30;99.90;;;;;;4805445;29;20030;-77
2022/08/29 09:34:00;;;;;;;3.53;1.17;;;30.90;99.90;;;;;;4804929;29;20062;-77
2022/08/29 09:36:55;;;;;;;2.97;0.95;;;29.80;99.90;;;;;;4805420;29;20066;-77
2022/08/29 09:39:20;;;;;;;3.40;1.35;;;31.90;99.90;;;;;;4802500;29;20066;-76
2022/08/29 09:41:56;;;;;;;3.13;1.13;;;31.00;99.90;;;;;;4823589;29;20363;-76
2022/08/29 09:44:33;;;;;;;1.63;0.80;;;31.20;99.90;;;;;;4823227;29;20034;-76
2022/08/29 09:47:18;;;;;;;2.30;1.08;;;30.70;99.90;;;;;;4823249;29;20349;-76
2022/08/29 09:50:03;;;;;;;1.50;0.90;;;30.80;99.90;;;;;;4805217;29;20145;-76
2022/08/29 09:52:29;;;;;;;4.20;1.10;;;31.10;99.90;;;;;;4804770;29;20078;-77
2022/08/29 09:54:55;;;;;;;2.92;1.00;;;32.00;99.90;;;;;;4805657;29;20137;-78
2022/08/29 09:57:25;;;;;;;3.20;1.05;;;30.40;99.90;;;;;;4805165;29;20522;-77
2022/08/29 10:00:12;;;;;;;;;;;28.40;99.90;;;;;;4805518;29;20467;-78
2022/08/29 10:02:48;;;;;;;4.05;0.98;;;27.30;99.90;;;;;;4841628;29;19909;-77
2022/08/29 10:05:33;;;;;;;4.13;1.25;;;26.50;99.90;;;;;;4841415;29;20051;-77
2022/08/29 10:08:01;;;;;;;2.85;1.10;;;26.60;99.90;;;;;;4841199;29;20052;-78
2022/08/29 10:10:29;;;;;;;1.35;0.85;;;27.10;99.90;;;;;;4842149;29;20030;-77
2022/08/29 10:13:18;;;;;;;5.10;1.08;;;26.00;99.90;;;;;;4841620;29;20097;-77
2022/08/29 10:15:48;;;;;;;1.90;1.00;;;26.00;99.90;;;;;;4841408;29;20030;-77
2022/08/29 10:18:27;;;;;;;3.83;1.10;;;26.00;99.90;;;;;;4841465;29;20037;-77
2022/08/29 10:21:16;;;;;;;6.82;1.50;;;26.10;99.90;;;;;;4843861;29;20053;-76
2022/08/29 10:23:58;;;;;;;4.93;1.23;;;25.20;99.90;;;;;;4835368;29;20110;-77
2022/08/29 10:26:53;;;;;;;7.78;1.73;;;24.40;99.90;;;;;;4821020;29;20646;-77
2022/08/29 10:29:37;;;;;;;5.65;1.48;;;23.80;99.90;;;;;;4805926;29;20050;-78
2022/08/29 10:32:18;;;;;;;4.38;1.58;;;23.40;99.90;;;;;;4833316;29;20030;-77
2022/08/29 10:35:04;;;;;;;3.58;1.77;;;24.30;99.90;;;;;;4835386;29;20112;-77
2022/08/29 10:37:29;;;;;;;6.20;1.60;;;24.00;99.90;;;;;;4822050;29;20022;-78
2022/08/29 10:40:14;;;;;;;5.75;1.80;;;23.70;99.90;;;;;;4842158;29;20047;-78
2022/08/29 10:42:43;;;;;;;6.78;1.73;;;24.00;99.90;;;;;;4838913;29;20089;-77
2022/08/29 10:45:15;;;;;;;4.82;1.80;;;24.00;99.90;;;;;;4823532;29;20030;-77
2022/08/29 10:48:00;;;;;;;5.50;1.83;;;24.20;99.90;;;;;;4827251;29;20610;-77
2022/08/29 10:50:38;;;;;;;4.38;2.17;;;24.30;99.90;;;;;;4842761;29;20048;-77
2022/08/29 10:53:25;;;;;;;5.15;1.65;;;24.10;99.90;;;;;;4833079;29;20055;-77
2022/08/29 10:56:00;;;;;;;6.00;2.38;;;24.40;99.90;;;;;;4824798;29;20030;-77
2022/08/29 10:59:01;;;;;;;6.18;2.15;;;24.50;99.90;;;;;;4814367;29;20027;-77
2022/08/29 11:01:33;;;;;;;5.32;1.92;;;25.00;99.90;;;;;;4823768;29;20477;-77
2022/08/29 11:04:19;;;;;;;4.45;1.85;;;25.00;99.90;;;;;;4824648;29;20069;-77
2022/08/29 11:07:08;;;;;;;10.68;2.97;;;24.70;99.90;;;;;;4828818;29;20049;-77
2022/08/29 11:09:46;;;;;;;6.88;2.20;;;23.90;99.90;;;;;;4828973;29;20063;-77
2022/08/29 11:12:44;;;;;;;8.52;2.33;;;23.60;99.90;;;;;;4829836;29;20109;-78
2022/08/29 11:15:15;;;;;;;6.43;1.95;;;24.20;99.90;;;;;;4821471;29;20166;-76
2022/08/29 11:17:47;;;;;;;5.70;2.00;;;24.50;99.90;;;;;;4832074;29;20037;-77
2022/08/29 11:20:23;;;;;;;7.03;1.95;;;24.70;99.90;;;;;;4825870;29;20117;-77
2022/08/29 11:23:04;;;;;;;6.60;1.98;;;25.20;99.90;;;;;;4835415;29;20087;-78
2022/08/29 11:25:31;;;;;;;8.77;2.13;;;25.30;99.90;;;;;;4817903;29;20030;-77
2022/08/29 11:28:12;;;;;;;11.07;2.63;;;25.70;99.90;;;;;;4840746;29;20090;-78
2022/08/29 11:30:52;;;;;;;7.32;2.40;;;25.90;99.90;;;;;;4846168;29;20482;-78
2022/08/29 11:34:01;;;;;;;8.32;2.63;;;25.20;99.90;;;;;;4826003;29;20544;-76
2022/08/29 11:36:45;;;;;;;4.47;2.00;;;25.10;99.90;;;;;;4810681;29;20031;-78
2022/08/29 11:39:20;;;;;;;8.13;2.03;;;24.10;99.90;;;;;;4826870;29;20026;-78
2022/08/29 11:41:48;;;;;;;4.32;1.85;;;24.50;99.90;;;;;;4818247;29;20036;-78
2022/08/29 11:44:20;;;;;;;5.77;2.03;;;24.90;99.90;;;;;;4821099;29;20026;-78
2022/08/29 11:46:48;;;;;;;5.47;1.48;;;24.70;99.90;;;;;;4847546;29;20034;-78
2022/08/29 11:49:29;;;;;;;4.93;1.75;;;24.40;99.90;;;;;;4838573;29;20403;-77
2022/08/29 11:52:20;;;;;;;5.80;2.28;;;24.10;99.90;;;;;;4826767;29;20046;-77
2022/08/29 11:55:29;;;;;;;5.30;1.80;;;24.00;99.90;;;;;;4811071;29;20138;-77
2022/08/29 11:57:59;;;;;;;4.50;1.35;;;23.50;99.90;;;;;;4811623;29;20027;-78
2022/08/29 12:00:33;;;;;;;5.25;2.13;;;23.30;99.90;;;;;;4840717;29;20141;-77
2022/08/29 12:02:59;;;;;;;9.30;1.90;;;23.40;99.90;;;;;;4843729;29;20065;-77
2022/08/29 12:05:28;;;;;;;6.22;2.25;;;22.80;99.90;;;;;;4847851;29;20037;-78
2022/08/29 12:08:02;;;;;;;6.00;2.40;;;22.90;99.90;;;;;;4838000;29;20063;-78
2022/08/29 12:10:33;;;;;;;7.07;2.10;;;22.80;99.90;;;;;;4827944;29;20026;-78
2022/08/29 12:13:05;;;;;;;9.93;2.40;;;23.00;99.90;;;;;;4843569;29;20578;-78
2022/08/29 12:15:31;;;;;;;6.15;2.38;;;22.90;99.90;;;;;;4846515;29;20026;-78
2022/08/29 12:18:08;;;;;;;8.52;2.30;;;22.80;99.90;;;;;;4848134;29;20021;-78
2022/08/29 12:20:44;;;;;;;5.60;2.17;;;22.90;99.90;;;;;;4847016;29;20025;-78
2022/08/29 12:23:10;;;;;;;6.75;2.08;;;22.60;99.90;;;;;;4847917;29;20030;-78
2022/08/29 12:25:42;;;;;;;8.68;2.47;;;22.60;99.90;;;;;;4856183;29;20338;-77
2022/08/29 12:28:17;;;;;;;9.40;2.17;;;22.10;99.90;;;;;;4853016;29;20027;-78
2022/08/29 12:30:47;;;;;;;9.45;2.53;;;22.40;99.90;;;;;;4849672;29;20026;-77
2022/08/29 12:33:28;;;;;;;5.97;2.17;;;22.40;99.90;;;;;;4851836;29;20094;-78
2022/08/29 12:36:09;;;;;;;4.63;1.35;;;22.20;99.90;;;;;;4844466;29;20096;-78
2022/08/29 12:38:48;;;;;;;3.80;2.13;;;22.10;99.90;;;;;;4853112;29;20037;-79
2022/08/29 12:41:48;;;;;;;5.07;2.03;;;22.20;99.90;;;;;;4842363;29;20377;-78
2022/08/29 12:44:18;;;;;;;6.93;2.15;;;22.60;99.90;;;;;;4837788;29;20023;-78
2022/08/29 12:46:49;;;;;;;8.07;2.47;;;22.60;99.90;;;;;;4852778;29;20042;-77
2022/08/29 12:49:20;;;;;;;9.05;2.25;;;22.50;99.90;;;;;;4854169;29;20038;-77
2022/08/29 12:51:59;;;;;;;6.63;2.22;;;22.60;99.90;;;;;;4846268;29;20128;-78
2022/08/29 12:54:38;;;;;;;9.63;2.73;;;22.10;99.90;;;;;;4853380;29;20112;-78
2022/08/29 12:57:21;;;;;;;5.55;1.70;;;22.00;99.90;;;;;;4847012;29;20099;-77
2022/08/29 12:59:50;;;;;;;4.53;2.08;;;22.30;99.90;;;;;;4855222;29;20144;-77
2022/08/29 13:02:29;;;;;;;5.70;1.87;;;22.20;99.90;;;;;;4851654;29;20061;-77
2022/08/29 13:04:55;;;;;;;4.93;2.15;;;22.10;99.90;;;;;;4849746;29;20081;-77
2022/08/29 13:07:23;;;;;;;7.30;2.72;;;22.80;99.90;;;;;;4846697;29;20043;-76
2022/08/29 13:09:58;;;;;;;4.07;2.13;;;22.80;99.90;;;;;;4844925;29;20081;-76
2022/08/29 13:12:33;;;;;;;3.65;1.70;;;23.10;99.90;;;;;;4839968;29;20061;-77
2022/08/29 13:15:02;;;;;;;6.32;2.53;;;23.10;99.90;;;;;;4854039;29;20085;-77